createdAt,value
2022-12-31T00:01:10.420Z,11.25
2022-12-31T00:03:38.909Z,11.21
2022-12-31T00:06:16.242Z,11.38
2022-12-31T00:08:45.234Z,11.38
2022-12-31T00:11:13.289Z,11.42
2022-12-31T00:13:40.750Z,11.39
2022-12-31T00:16:17.594Z,11.34
2022-12-31T00:18:47.028Z,11.33
2022-12-31T00:21:18.242Z,11.24
2022-12-31T00:23:46.101Z,11.25
2022-12-31T00:26:21.406Z,11.30
2022-12-31T00:28:49.419Z,11.33
2022-12-31T00:31:22.253Z,11.36
2022-12-31T00:33:51.136Z,11.33
2022-12-31T00:36:21.481Z,11.30
2022-12-31T00:38:51.741Z,11.21
2022-12-31T00:41:20.538Z,11.11
2022-12-31T00:43:48.860Z,11.27
2022-12-31T00:46:18.309Z,11.39
2022-12-31T00:48:46.209Z,11.50
2022-12-31T00:51:16.589Z,11.24
2022-12-31T00:53:45.144Z,11.41
2022-12-31T00:56:24.182Z,11.33
2022-12-31T00:58:51.728Z,11.35
2022-12-31T01:01:34.681Z,11.27
2022-12-31T01:04:14.145Z,11.25
2022-12-31T01:06:42.874Z,11.11
2022-12-31T01:09:12.960Z,11.16
2022-12-31T01:11:41.464Z,11.17
2022-12-31T01:14:15.361Z,11.27
2022-12-31T01:16:51.505Z,11.13
2022-12-31T01:19:22.061Z,11.19
2022-12-31T01:21:53.618Z,11.16
2022-12-31T01:24:23.621Z,11.06
2022-12-31T01:26:51.921Z,10.94
2022-12-31T01:29:19.406Z,11.08
2022-12-31T01:31:46.980Z,11.03
2022-12-31T01:34:14.131Z,10.88
2022-12-31T01:36:41.782Z,11.05
2022-12-31T01:39:10.989Z,10.90
2022-12-31T01:41:42.903Z,11.13
2022-12-31T01:44:28.761Z,11.17
2022-12-31T01:47:00.731Z,11.14
2022-12-31T01:49:31.429Z,11.25
2022-12-31T01:52:02.149Z,11.26
2022-12-31T01:54:32.385Z,11.23
2022-12-31T01:57:00.593Z,11.19
2022-12-31T01:59:32.320Z,11.12
2022-12-31T02:02:01.597Z,11.12
2022-12-31T02:04:30.158Z,10.95
2022-12-31T02:07:01.334Z,10.96
2022-12-31T02:09:30.687Z,10.94
2022-12-31T02:11:58.161Z,10.79
2022-12-31T02:14:25.334Z,10.80
2022-12-31T02:16:56.695Z,10.78
2022-12-31T02:19:56.310Z,10.75
2022-12-31T02:22:47.224Z,10.89
2022-12-31T02:25:23.456Z,10.95
2022-12-31T02:28:13.054Z,11.01
2022-12-31T02:30:41.901Z,11.06
2022-12-31T02:33:10.311Z,11.13
2022-12-31T02:35:51.748Z,11.15
2022-12-31T02:38:50.087Z,11.15
2022-12-31T02:41:38.086Z,11.10
2022-12-31T02:44:29.206Z,11.19
2022-12-31T02:47:27.453Z,11.24
2022-12-31T02:50:10.439Z,11.26
2022-12-31T02:53:07.337Z,11.18
2022-12-31T02:55:50.096Z,11.22
2022-12-31T02:58:51.546Z,11.15
2022-12-31T03:01:49.216Z,11.05
2022-12-31T03:04:33.433Z,11.08
2022-12-31T03:07:02.312Z,11.00
2022-12-31T03:09:29.681Z,10.99
2022-12-31T03:12:15.543Z,11.04
2022-12-31T03:14:43.437Z,11.07
2022-12-31T03:17:11.136Z,11.05
2022-12-31T03:19:57.939Z,11.00
2022-12-31T03:22:28.610Z,11.09
2022-12-31T03:25:24.259Z,11.09
2022-12-31T03:27:54.080Z,11.07
2022-12-31T03:30:23.643Z,11.20
2022-12-31T03:32:51.488Z,11.25
2022-12-31T03:35:21.580Z,11.25
2022-12-31T03:37:51.916Z,11.29
2022-12-31T03:40:21.916Z,11.21
2022-12-31T03:42:50.483Z,11.12
2022-12-31T03:45:20.219Z,11.22
2022-12-31T03:47:48.385Z,11.28
2022-12-31T03:50:19.088Z,11.25
2022-12-31T03:52:48.114Z,11.42
2022-12-31T03:55:15.874Z,11.34
2022-12-31T03:57:45.589Z,11.36
2022-12-31T04:00:18.208Z,11.30
2022-12-31T04:02:47.499Z,11.24
2022-12-31T04:05:17.347Z,11.20
2022-12-31T04:07:45.520Z,11.35
2022-12-31T04:10:14.940Z,11.31
2022-12-31T04:12:43.352Z,11.40
2022-12-31T04:15:16.296Z,11.27
2022-12-31T04:17:47.062Z,11.27
2022-12-31T04:20:15.471Z,11.18
2022-12-31T04:22:44.289Z,11.11
2022-12-31T04:25:13.550Z,11.08
2022-12-31T04:27:43.876Z,11.04
2022-12-31T04:30:13.459Z,10.99
2022-12-31T04:32:41.505Z,10.82
2022-12-31T04:35:09.878Z,10.85
2022-12-31T04:37:37.901Z,10.78
2022-12-31T04:40:08.236Z,10.83
2022-12-31T04:42:36.610Z,10.68
2022-12-31T04:45:04.641Z,10.64
2022-12-31T04:47:32.109Z,10.54
2022-12-31T04:49:59.246Z,10.69
2022-12-31T04:52:26.665Z,10.84
2022-12-31T04:54:54.386Z,10.89
2022-12-31T04:57:22.070Z,10.82
2022-12-31T04:59:49.177Z,10.78
2022-12-31T05:02:16.878Z,10.89
2022-12-31T05:04:44.191Z,10.83
2022-12-31T05:07:11.849Z,10.81
2022-12-31T05:09:39.051Z,10.85
2022-12-31T05:12:06.698Z,10.87
2022-12-31T05:14:34.062Z,10.85
2022-12-31T05:17:01.570Z,10.79
2022-12-31T05:19:28.783Z,10.98
2022-12-31T05:22:14.674Z,11.07
2022-12-31T05:24:41.921Z,11.08
2022-12-31T05:27:09.559Z,11.16
2022-12-31T05:29:39.031Z,11.16
2022-12-31T05:32:06.404Z,11.03
2022-12-31T05:34:33.508Z,11.01
2022-12-31T05:37:02.048Z,11.02
2022-12-31T05:39:29.245Z,11.06
2022-12-31T05:41:56.884Z,11.13
2022-12-31T05:44:24.108Z,11.20
2022-12-31T05:46:51.655Z,11.18
2022-12-31T05:49:20.362Z,11.25
2022-12-31T05:51:51.670Z,11.21
2022-12-31T05:54:18.906Z,11.18
2022-12-31T05:56:47.543Z,11.12
2022-12-31T05:59:14.820Z,11.25
2022-12-31T06:01:42.514Z,11.35
2022-12-31T06:04:10.107Z,11.32
2022-12-31T06:06:37.553Z,11.44
2022-12-31T06:09:04.860Z,11.32
2022-12-31T06:11:33.402Z,11.55
2022-12-31T06:14:01.611Z,11.55
2022-12-31T06:16:32.055Z,11.56
2022-12-31T06:19:01.638Z,11.62
2022-12-31T06:21:29.889Z,11.65
2022-12-31T06:23:57.319Z,11.77
2022-12-31T06:26:27.025Z,11.76
2022-12-31T06:28:56.816Z,11.72
2022-12-31T06:31:24.273Z,11.83
2022-12-31T06:33:52.895Z,11.87
2022-12-31T06:36:22.009Z,11.91
2022-12-31T06:38:49.468Z,11.82
2022-12-31T06:41:18.950Z,12.06
2022-12-31T06:43:46.515Z,11.92
2022-12-31T06:46:17.027Z,12.07
2022-12-31T06:48:47.634Z,12.17
2022-12-31T06:51:18.544Z,12.24
2022-12-31T06:53:47.512Z,12.22
2022-12-31T06:56:19.017Z,12.23
2022-12-31T06:58:46.445Z,12.22
2022-12-31T07:01:46.674Z,12.22
2022-12-31T07:04:32.450Z,12.30
2022-12-31T07:07:21.297Z,12.34
2022-12-31T07:10:33.743Z,12.46
2022-12-31T07:13:12.336Z,13.05
2022-12-31T07:16:01.433Z,14.38
2022-12-31T07:18:56.308Z,16.07
2022-12-31T07:21:35.180Z,17.36
2022-12-31T07:24:09.914Z,18.55
2022-12-31T07:26:55.939Z,19.54
2022-12-31T07:30:19.409Z,21.11
2022-12-31T07:33:03.538Z,22.19
2022-12-31T07:35:45.201Z,22.13
2022-12-31T07:38:17.683Z,21.11
2022-12-31T07:41:11.506Z,20.40
2022-12-31T07:43:50.896Z,18.61
2022-12-31T07:46:35.933Z,17.25
2022-12-31T07:49:04.643Z,16.56
2022-12-31T07:51:32.321Z,16.19
2022-12-31T07:53:59.747Z,15.86
2022-12-31T07:56:27.030Z,15.49
2022-12-31T07:59:30.792Z,15.15
2022-12-31T08:02:08.574Z,14.91
2022-12-31T08:04:48.448Z,14.88
2022-12-31T08:07:36.970Z,14.76
2022-12-31T08:10:18.179Z,14.69
2022-12-31T08:12:50.774Z,14.49
2022-12-31T08:15:20.595Z,14.40
2022-12-31T08:17:51.994Z,14.55
2022-12-31T08:20:20.247Z,14.56
2022-12-31T08:23:16.408Z,14.57
2022-12-31T08:26:07.350Z,14.41
2022-12-31T08:29:03.007Z,14.43
2022-12-31T08:31:36.748Z,14.42
2022-12-31T08:34:27.034Z,14.49
2022-12-31T08:37:04.855Z,14.40
2022-12-31T08:39:53.867Z,14.44
2022-12-31T08:42:21.415Z,14.84
2022-12-31T08:45:17.182Z,14.89
2022-12-31T08:47:48.560Z,14.93
2022-12-31T08:50:20.478Z,14.96
2022-12-31T08:52:50.055Z,14.74
2022-12-31T08:55:19.553Z,13.92
2022-12-31T08:58:11.634Z,13.50
2022-12-31T09:00:41.949Z,13.29
2022-12-31T09:03:36.497Z,13.02
2022-12-31T09:06:16.630Z,12.35
2022-12-31T09:08:47.794Z,11.92
2022-12-31T09:11:44.427Z,11.57
2022-12-31T09:14:21.190Z,11.97
2022-12-31T09:16:57.538Z,12.18
2022-12-31T09:19:25.312Z,12.10
2022-12-31T09:21:54.949Z,12.18
2022-12-31T09:24:22.749Z,12.42
2022-12-31T09:27:04.667Z,12.56
2022-12-31T09:30:03.042Z,12.69
2022-12-31T09:33:07.992Z,12.84
2022-12-31T09:35:50.285Z,13.00
2022-12-31T09:38:28.847Z,13.16
2022-12-31T09:41:00.221Z,13.54
2022-12-31T09:44:28.705Z,13.88
2022-12-31T09:47:38.679Z,14.24
2022-12-31T09:50:35.584Z,14.51
2022-12-31T09:53:24.888Z,14.80
2022-12-31T09:55:55.440Z,15.43
2022-12-31T09:58:59.770Z,16.25
2022-12-31T10:01:50.084Z,16.57
2022-12-31T10:04:44.090Z,16.52
2022-12-31T10:07:33.171Z,16.44
2022-12-31T10:10:09.595Z,16.41
2022-12-31T10:12:51.372Z,16.20
2022-12-31T10:15:31.295Z,16.29
2022-12-31T10:18:32.322Z,16.21
2022-12-31T10:21:26.844Z,16.25
2022-12-31T10:24:32.808Z,16.47
2022-12-31T10:27:09.020Z,16.61
2022-12-31T10:29:43.097Z,16.70
2022-12-31T10:32:19.411Z,17.19
2022-12-31T10:34:59.134Z,17.17
2022-12-31T10:37:43.745Z,17.08
2022-12-31T10:40:17.500Z,17.46
2022-12-31T10:43:03.150Z,17.83
2022-12-31T10:45:52.391Z,18.80
2022-12-31T10:48:45.084Z,20.39
2022-12-31T10:51:24.850Z,20.28
2022-12-31T10:54:13.144Z,19.50
2022-12-31T10:57:01.286Z,19.67
2022-12-31T10:59:43.473Z,19.39
2022-12-31T11:02:14.198Z,18.69
2022-12-31T11:04:47.819Z,18.71
2022-12-31T11:07:34.134Z,18.75
2022-12-31T11:10:26.263Z,18.72
2022-12-31T11:13:10.818Z,19.26
2022-12-31T11:15:57.762Z,19.47
2022-12-31T11:18:53.951Z,19.50
2022-12-31T11:21:28.647Z,20.10
2022-12-31T11:24:25.886Z,21.64
2022-12-31T11:27:36.388Z,22.99
2022-12-31T11:30:54.529Z,23.99
2022-12-31T11:33:50.023Z,23.63
2022-12-31T11:36:48.286Z,24.33
2022-12-31T11:39:25.840Z,24.53
2022-12-31T11:42:19.441Z,24.26
2022-12-31T11:45:01.271Z,24.26
2022-12-31T11:51:32.149Z,24.27
2022-12-31T11:54:21.410Z,24.27
2022-12-31T11:57:00.288Z,24.55
2022-12-31T11:59:27.689Z,24.69
2022-12-31T12:02:16.581Z,24.99
2022-12-31T12:04:48.709Z,24.98
2022-12-31T12:07:16.820Z,25.03
2022-12-31T12:09:45.629Z,25.43
2022-12-31T12:12:13.219Z,25.85
2022-12-31T12:14:43.094Z,26.17
2022-12-31T12:17:16.795Z,26.07
2022-12-31T12:19:46.259Z,26.19
2022-12-31T12:22:21.846Z,25.25
2022-12-31T12:25:06.223Z,25.25
2022-12-31T12:27:35.854Z,24.71
2022-12-31T12:30:10.659Z,23.96
2022-12-31T12:32:38.026Z,24.28
2022-12-31T12:35:17.378Z,23.82
2022-12-31T12:37:44.505Z,23.20
2022-12-31T12:40:24.056Z,22.50
2022-12-31T12:42:59.567Z,22.94
2022-12-31T12:46:46.095Z,23.41
2022-12-31T12:49:26.004Z,22.45
2022-12-31T12:52:26.541Z,22.29
2022-12-31T12:55:06.541Z,21.76
2022-12-31T12:57:57.517Z,22.17
2022-12-31T13:01:08.601Z,22.51
2022-12-31T13:07:24.896Z,22.57
2022-12-31T13:10:23.136Z,22.87
2022-12-31T13:13:25.789Z,22.75
2022-12-31T13:16:05.817Z,22.97
2022-12-31T13:18:48.062Z,23.17
2022-12-31T13:21:57.106Z,22.05
2022-12-31T13:24:48.287Z,21.12
2022-12-31T13:27:33.880Z,20.67
2022-12-31T13:30:17.342Z,20.99
2022-12-31T13:33:13.347Z,21.56
2022-12-31T13:35:49.172Z,21.23
2022-12-31T13:38:39.633Z,21.12
2022-12-31T13:41:17.614Z,20.70
2022-12-31T13:43:58.940Z,21.02
2022-12-31T13:46:44.316Z,20.51
2022-12-31T13:49:24.412Z,20.37
2022-12-31T13:52:02.464Z,20.36
2022-12-31T13:54:52.567Z,20.10
2022-12-31T13:57:45.609Z,20.24
2022-12-31T14:00:25.113Z,20.17
2022-12-31T14:03:00.755Z,19.97
2022-12-31T14:05:46.881Z,20.14
2022-12-31T14:08:14.514Z,20.63
2022-12-31T14:10:45.030Z,20.64
2022-12-31T14:13:32.516Z,20.39
2022-12-31T14:16:11.676Z,20.55
2022-12-31T14:19:14.114Z,20.29
2022-12-31T14:22:01.066Z,19.93
2022-12-31T14:24:40.509Z,19.64
2022-12-31T14:27:17.210Z,19.25
2022-12-31T14:30:18.274Z,18.79
2022-12-31T14:33:04.965Z,18.54
2022-12-31T14:35:56.884Z,17.93
2022-12-31T14:38:39.438Z,17.56
2022-12-31T14:41:22.624Z,17.21
2022-12-31T14:44:21.881Z,16.94
2022-12-31T14:47:14.709Z,16.69
2022-12-31T14:49:48.079Z,16.50
2022-12-31T14:52:46.990Z,16.21
2022-12-31T14:55:17.127Z,16.05
2022-12-31T14:58:26.013Z,15.81
2022-12-31T15:00:38.795Z,15.62
2022-12-31T15:03:24.517Z,15.41
2022-12-31T15:05:59.230Z,15.22
2022-12-31T15:08:41.633Z,15.08
2022-12-31T15:11:23.894Z,14.92
2022-12-31T15:14:12.478Z,14.76
2022-12-31T15:16:50.727Z,14.51
2022-12-31T15:19:43.747Z,14.26
2022-12-31T15:22:49.858Z,14.17
2022-12-31T15:25:41.132Z,13.92
2022-12-31T15:28:39.779Z,13.75
2022-12-31T15:31:18.871Z,13.63
2022-12-31T15:34:04.236Z,13.61
2022-12-31T15:36:39.012Z,13.57
2022-12-31T15:39:25.626Z,13.52
2022-12-31T15:42:36.172Z,13.46
2022-12-31T15:45:04.718Z,13.41
2022-12-31T15:47:46.455Z,13.35
2022-12-31T15:50:19.043Z,13.15
2022-12-31T15:52:56.636Z,13.24
2022-12-31T15:55:41.801Z,13.20
2022-12-31T15:58:16.934Z,13.24
2022-12-31T16:01:05.886Z,13.17
2022-12-31T16:03:33.907Z,13.23
2022-12-31T16:06:04.471Z,13.23
2022-12-31T16:08:36.112Z,13.16
2022-12-31T16:11:05.986Z,13.17
2022-12-31T16:13:36.978Z,13.13
2022-12-31T16:16:19.602Z,13.10
2022-12-31T16:18:46.878Z,13.17
2022-12-31T16:21:36.666Z,13.10
2022-12-31T16:24:26.629Z,13.04
2022-12-31T16:26:59.981Z,13.07
2022-12-31T16:29:27.637Z,13.03
2022-12-31T16:31:55.258Z,12.94
2022-12-31T16:34:25.082Z,13.00
2022-12-31T16:36:57.530Z,12.99
2022-12-31T16:39:38.339Z,12.91
2022-12-31T16:42:14.961Z,12.92
2022-12-31T16:44:42.513Z,12.88
2022-12-31T16:47:27.577Z,12.76
2022-12-31T16:50:20.519Z,12.73
2022-12-31T16:52:57.947Z,12.64
2022-12-31T16:55:28.923Z,12.66
2022-12-31T16:58:08.197Z,12.61
2022-12-31T17:00:36.961Z,12.49
2022-12-31T17:03:28.116Z,12.60
2022-12-31T17:06:54.241Z,12.58
2022-12-31T17:09:39.001Z,12.51
2022-12-31T17:12:18.218Z,12.51
2022-12-31T17:15:04.913Z,12.42
2022-12-31T17:17:37.647Z,12.26
2022-12-31T17:20:23.148Z,12.23
2022-12-31T17:22:56.954Z,12.31
2022-12-31T17:25:31.699Z,12.37
2022-12-31T17:28:03.298Z,12.32
2022-12-31T17:30:31.516Z,12.32
2022-12-31T17:33:01.159Z,12.25
2022-12-31T17:35:33.061Z,12.26
2022-12-31T17:38:21.648Z,12.27
2022-12-31T17:41:22.303Z,12.26
2022-12-31T17:43:54.414Z,12.39
2022-12-31T17:46:25.763Z,12.37
2022-12-31T17:49:02.506Z,12.46
2022-12-31T17:51:30.102Z,12.49
2022-12-31T17:54:00.438Z,12.52
2022-12-31T17:56:53.095Z,12.55
2022-12-31T17:59:29.794Z,12.55
2022-12-31T18:02:03.444Z,12.60
2022-12-31T18:04:31.001Z,12.68
2022-12-31T18:06:58.561Z,12.60
2022-12-31T18:09:25.693Z,12.71
2022-12-31T18:11:55.637Z,12.69
2022-12-31T18:14:26.899Z,12.79
2022-12-31T18:16:54.647Z,12.81
2022-12-31T18:19:46.196Z,12.75
2022-12-31T18:22:16.168Z,12.86
2022-12-31T18:24:44.435Z,12.86
2022-12-31T18:27:17.294Z,12.88
2022-12-31T18:29:45.717Z,12.87
2022-12-31T18:32:34.353Z,12.86
2022-12-31T18:35:03.230Z,12.75
2022-12-31T18:37:32.705Z,12.78
2022-12-31T18:40:00.896Z,12.78
2022-12-31T18:42:33.587Z,12.66
2022-12-31T18:45:01.633Z,12.51
2022-12-31T18:47:37.289Z,12.45
2022-12-31T18:50:06.929Z,12.53
2022-12-31T18:52:34.425Z,12.56
2022-12-31T18:55:02.723Z,12.56
2022-12-31T18:57:30.229Z,12.51
2022-12-31T18:59:57.624Z,12.48
2022-12-31T19:02:25.655Z,12.43
2022-12-31T19:04:54.450Z,12.50
2022-12-31T19:07:23.363Z,12.51
2022-12-31T19:09:58.477Z,12.54
2022-12-31T19:12:26.400Z,12.50
2022-12-31T19:14:53.557Z,12.50
2022-12-31T19:17:21.801Z,12.42
2022-12-31T19:19:48.923Z,12.41
2022-12-31T19:22:16.401Z,12.54
2022-12-31T19:24:44.569Z,12.50
2022-12-31T19:27:13.500Z,12.40
2022-12-31T19:29:40.728Z,12.37
2022-12-31T19:32:08.235Z,12.41
2022-12-31T19:34:35.440Z,12.40
2022-12-31T19:37:02.896Z,12.47
2022-12-31T19:39:30.053Z,12.46
2022-12-31T19:41:59.917Z,12.50
2022-12-31T19:44:30.125Z,12.40
2022-12-31T19:46:58.826Z,12.36
2022-12-31T19:49:25.965Z,12.28
2022-12-31T19:51:53.992Z,12.27
2022-12-31T19:54:22.254Z,12.26
2022-12-31T19:56:50.703Z,12.31
2022-12-31T19:59:17.829Z,12.35
2022-12-31T20:01:49.850Z,12.40
2022-12-31T20:04:18.635Z,12.53
2022-12-31T20:06:49.621Z,12.55
2022-12-31T20:09:19.130Z,12.51
2022-12-31T20:11:46.905Z,12.52
2022-12-31T20:14:14.040Z,12.41
2022-12-31T20:16:41.700Z,12.55
2022-12-31T20:19:10.576Z,12.49
2022-12-31T20:21:39.250Z,12.42
2022-12-31T20:24:08.055Z,12.33
2022-12-31T20:26:36.412Z,12.28
2022-12-31T20:29:03.603Z,12.20
2022-12-31T20:31:31.188Z,12.19
2022-12-31T20:33:58.424Z,12.10
2022-12-31T20:36:26.693Z,12.14
2022-12-31T20:38:54.949Z,12.06
2022-12-31T20:41:23.161Z,12.06
2022-12-31T20:43:51.027Z,12.08
2022-12-31T20:46:24.932Z,12.00
2022-12-31T20:48:55.244Z,11.94
2022-12-31T20:51:23.579Z,11.96
2022-12-31T20:53:55.167Z,11.93
2022-12-31T20:56:25.000Z,11.99
2022-12-31T20:58:52.176Z,11.92
2022-12-31T21:01:20.036Z,11.92
2022-12-31T21:04:06.019Z,12.02
2022-12-31T21:06:35.611Z,11.85
2022-12-31T21:09:05.221Z,11.78
2022-12-31T21:11:51.254Z,11.72
2022-12-31T21:14:18.463Z,11.62
2022-12-31T21:16:45.986Z,11.57
2022-12-31T21:19:13.142Z,11.64
2022-12-31T21:21:40.901Z,11.69
2022-12-31T21:24:08.612Z,11.68
2022-12-31T21:26:36.076Z,11.62
2022-12-31T21:29:03.342Z,11.56
2022-12-31T21:31:30.847Z,11.53
2022-12-31T21:33:58.019Z,11.54
2022-12-31T21:36:25.488Z,11.54
2022-12-31T21:38:52.693Z,11.54
2022-12-31T21:41:38.986Z,11.61
2022-12-31T21:44:06.872Z,11.57
2022-12-31T21:46:34.386Z,11.57
2022-12-31T21:49:01.695Z,11.63
2022-12-31T21:51:30.624Z,11.76
2022-12-31T21:53:57.903Z,11.75
2022-12-31T21:56:25.443Z,11.79
2022-12-31T21:59:16.713Z,11.79
2022-12-31T22:02:03.155Z,11.76
2022-12-31T22:07:18.430Z,11.68
2022-12-31T22:09:46.949Z,11.68
2022-12-31T22:12:14.402Z,11.61
2022-12-31T22:15:15.586Z,11.72
2022-12-31T22:17:28.979Z,11.66
2022-12-31T22:22:43.937Z,11.61
2022-12-31T22:25:11.200Z,11.51
2022-12-31T22:27:39.164Z,11.45
2022-12-31T22:30:07.343Z,11.38
2022-12-31T22:32:34.837Z,11.33
2022-12-31T22:35:02.099Z,11.35
2022-12-31T22:37:56.476Z,11.41
2022-12-31T22:40:17.670Z,11.50
2022-12-31T22:42:45.674Z,11.43
2022-12-31T22:45:12.929Z,11.55
2022-12-31T22:47:40.419Z,11.42
2022-12-31T22:50:08.044Z,11.45
2022-12-31T22:52:35.523Z,11.39
2022-12-31T22:55:02.856Z,11.45
2022-12-31T22:57:31.988Z,11.41
2022-12-31T23:00:03.787Z,11.52
2022-12-31T23:02:39.848Z,11.49
2022-12-31T23:05:15.829Z,11.53
2022-12-31T23:07:43.975Z,11.53
2022-12-31T23:10:29.683Z,11.55
2022-12-31T23:12:59.087Z,11.52
2022-12-31T23:15:44.762Z,11.56
2022-12-31T23:18:30.581Z,11.67
2022-12-31T23:21:16.253Z,11.56
2022-12-31T23:23:43.782Z,11.53
2022-12-31T23:26:10.926Z,11.42
2022-12-31T23:28:38.345Z,11.42
2022-12-31T23:31:06.669Z,11.36
2022-12-31T23:33:35.461Z,11.28
2022-12-31T23:36:06.179Z,11.15
2022-12-31T23:38:33.994Z,11.24
2022-12-31T23:41:01.412Z,11.17
2022-12-31T23:43:29.137Z,11.10
2022-12-31T23:45:57.743Z,10.91
2022-12-31T23:48:25.453Z,10.76
2022-12-31T23:50:54.258Z,10.72
2022-12-31T23:53:25.177Z,10.46
2022-12-31T23:55:53.356Z,10.20
2022-12-31T23:58:21.317Z,10.13
